sensor_id;sensor_type;location;lat;lon;timestamp;P1;durP1;ratioP1;P2;durP2;ratioP2
24337;SDS011;12457;50.832;4.346;2022-12-18T00:00:57;45.28;;;24.83;;
24337;SDS011;12457;50.832;4.346;2022-12-18T00:03:23;44.38;;;24.70;;
24337;SDS011;12457;50.832;4.346;2022-12-18T00:05:50;49.53;;;25.30;;
24337;SDS011;12457;50.832;4.346;2022-12-18T00:08:17;52.38;;;24.65;;
24337;SDS011;12457;50.832;4.346;2022-12-18T00:10:44;44.40;;;24.67;;
24337;SDS011;12457;50.832;4.346;2022-12-18T00:13:10;48.58;;;25.55;;
24337;SDS011;12457;50.832;4.346;2022-12-18T00:15:37;44.42;;;25.95;;
24337;SDS011;12457;50.832;4.346;2022-12-18T00:18:03;47.25;;;26.35;;
24337;SDS011;12457;50.832;4.346;2022-12-18T00:20:29;44.85;;;25.67;;
24337;SDS011;12457;50.832;4.346;2022-12-18T00:22:55;47.03;;;25.02;;
24337;SDS011;12457;50.832;4.346;2022-12-18T00:25:21;42.03;;;24.35;;
24337;SDS011;12457;50.832;4.346;2022-12-18T00:27:47;46.80;;;23.77;;
24337;SDS011;12457;50.832;4.346;2022-12-18T00:30:13;45.72;;;23.33;;
24337;SDS011;12457;50.832;4.346;2022-12-18T00:32:45;45.10;;;24.50;;
24337;SDS011;12457;50.832;4.346;2022-12-18T00:35:11;44.80;;;24.67;;
24337;SDS011;12457;50.832;4.346;2022-12-18T00:37:37;43.00;;;25.42;;
24337;SDS011;12457;50.832;4.346;2022-12-18T00:40:02;43.92;;;22.75;;
24337;SDS011;12457;50.832;4.346;2022-12-18T00:42:28;38.42;;;20.52;;
24337;SDS011;12457;50.832;4.346;2022-12-18T00:45:13;37.80;;;21.08;;
24337;SDS011;12457;50.832;4.346;2022-12-18T00:47:39;40.85;;;21.48;;
24337;SDS011;12457;50.832;4.346;2022-12-18T00:50:05;40.22;;;20.90;;
24337;SDS011;12457;50.832;4.346;2022-12-18T00:52:31;42.65;;;20.63;;
24337;SDS011;12457;50.832;4.346;2022-12-18T00:54:57;36.35;;;20.73;;
24337;SDS011;12457;50.832;4.346;2022-12-18T00:57:23;39.90;;;21.38;;
24337;SDS011;12457;50.832;4.346;2022-12-18T00:59:48;38.25;;;20.35;;
24337;SDS011;12457;50.832;4.346;2022-12-18T01:02:14;40.40;;;21.98;;
24337;SDS011;12457;50.832;4.346;2022-12-18T01:04:39;40.17;;;20.80;;
24337;SDS011;12457;50.832;4.346;2022-12-18T01:07:05;36.53;;;20.08;;
24337;SDS011;12457;50.832;4.346;2022-12-18T01:09:31;30.30;;;17.48;;
24337;SDS011;12457;50.832;4.346;2022-12-18T01:11:56;31.75;;;18.42;;
24337;SDS011;12457;50.832;4.346;2022-12-18T01:14:22;34.65;;;18.38;;
24337;SDS011;12457;50.832;4.346;2022-12-18T01:16:48;38.00;;;18.45;;
24337;SDS011;12457;50.832;4.346;2022-12-18T01:19:13;33.60;;;17.67;;
24337;SDS011;12457;50.832;4.346;2022-12-18T01:21:39;35.72;;;16.38;;
24337;SDS011;12457;50.832;4.346;2022-12-18T01:24:05;29.65;;;16.02;;
24337;SDS011;12457;50.832;4.346;2022-12-18T01:26:31;25.50;;;15.80;;
24337;SDS011;12457;50.832;4.346;2022-12-18T01:28:57;31.23;;;16.48;;
24337;SDS011;12457;50.832;4.346;2022-12-18T01:31:27;22.83;;;13.23;;
24337;SDS011;12457;50.832;4.346;2022-12-18T01:33:55;25.30;;;14.43;;
24337;SDS011;12457;50.832;4.346;2022-12-18T01:36:27;24.38;;;13.77;;
24337;SDS011;12457;50.832;4.346;2022-12-18T01:38:55;28.30;;;14.35;;
24337;SDS011;12457;50.832;4.346;2022-12-18T01:41:23;24.95;;;14.27;;
24337;SDS011;12457;50.832;4.346;2022-12-18T01:43:52;26.90;;;14.57;;
24337;SDS011;12457;50.832;4.346;2022-12-18T01:46:23;25.42;;;14.35;;
24337;SDS011;12457;50.832;4.346;2022-12-18T01:48:54;26.90;;;14.50;;
24337;SDS011;12457;50.832;4.346;2022-12-18T01:51:25;24.38;;;13.80;;
24337;SDS011;12457;50.832;4.346;2022-12-18T01:53:58;21.85;;;13.18;;
24337;SDS011;12457;50.832;4.346;2022-12-18T01:56:25;24.45;;;12.90;;
24337;SDS011;12457;50.832;4.346;2022-12-18T01:59:01;24.83;;;12.48;;
24337;SDS011;12457;50.832;4.346;2022-12-18T02:01:32;25.17;;;12.35;;
24337;SDS011;12457;50.832;4.346;2022-12-18T02:07:16;24.10;;;13.82;;
24337;SDS011;12457;50.832;4.346;2022-12-18T02:09:46;26.58;;;13.80;;
24337;SDS011;12457;50.832;4.346;2022-12-18T02:12:20;22.08;;;12.88;;
24337;SDS011;12457;50.832;4.346;2022-12-18T02:15:13;23.33;;;12.45;;
24337;SDS011;12457;50.832;4.346;2022-12-18T02:17:49;23.77;;;13.18;;
24337;SDS011;12457;50.832;4.346;2022-12-18T02:28:45;25.17;;;12.40;;
24337;SDS011;12457;50.832;4.346;2022-12-18T02:31:19;25.75;;;13.25;;
24337;SDS011;12457;50.832;4.346;2022-12-18T02:33:55;22.52;;;12.77;;
24337;SDS011;12457;50.832;4.346;2022-12-18T02:36:24;24.73;;;13.15;;
24337;SDS011;12457;50.832;4.346;2022-12-18T02:38:53;20.80;;;12.57;;
24337;SDS011;12457;50.832;4.346;2022-12-18T02:41:20;25.67;;;13.20;;
24337;SDS011;12457;50.832;4.346;2022-12-18T02:43:53;25.05;;;13.60;;
24337;SDS011;12457;50.832;4.346;2022-12-18T02:46:33;27.17;;;12.80;;
24337;SDS011;12457;50.832;4.346;2022-12-18T02:51:39;22.75;;;12.43;;
24337;SDS011;12457;50.832;4.346;2022-12-18T02:54:17;23.48;;;13.18;;
24337;SDS011;12457;50.832;4.346;2022-12-18T02:56:54;27.80;;;11.35;;
24337;SDS011;12457;50.832;4.346;2022-12-18T02:59:32;25.42;;;12.50;;
24337;SDS011;12457;50.832;4.346;2022-12-18T03:02:15;21.45;;;12.77;;
24337;SDS011;12457;50.832;4.346;2022-12-18T03:05:10;19.35;;;11.52;;
24337;SDS011;12457;50.832;4.346;2022-12-18T03:10:28;27.25;;;13.93;;
24337;SDS011;12457;50.832;4.346;2022-12-18T03:13:17;24.48;;;12.13;;
24337;SDS011;12457;50.832;4.346;2022-12-18T03:15:48;23.65;;;13.52;;
24337;SDS011;12457;50.832;4.346;2022-12-18T03:18:23;24.90;;;13.20;;
24337;SDS011;12457;50.832;4.346;2022-12-18T03:21:05;25.08;;;14.13;;
24337;SDS011;12457;50.832;4.346;2022-12-18T03:23:58;25.20;;;13.52;;
24337;SDS011;12457;50.832;4.346;2022-12-18T03:26:25;21.95;;;13.52;;
24337;SDS011;12457;50.832;4.346;2022-12-18T03:28:53;21.65;;;13.30;;
24337;SDS011;12457;50.832;4.346;2022-12-18T03:31:23;27.35;;;13.80;;
24337;SDS011;12457;50.832;4.346;2022-12-18T03:33:55;24.10;;;14.05;;
24337;SDS011;12457;50.832;4.346;2022-12-18T03:36:23;21.10;;;13.23;;
24337;SDS011;12457;50.832;4.346;2022-12-18T03:38:51;24.17;;;13.75;;
24337;SDS011;12457;50.832;4.346;2022-12-18T03:49:11;24.15;;;13.43;;
24337;SDS011;12457;50.832;4.346;2022-12-18T03:51:47;21.60;;;12.80;;
24337;SDS011;12457;50.832;4.346;2022-12-18T03:54:17;20.80;;;12.40;;
24337;SDS011;12457;50.832;4.346;2022-12-18T03:56:48;24.17;;;12.15;;
24337;SDS011;12457;50.832;4.346;2022-12-18T03:59:22;23.45;;;11.40;;
24337;SDS011;12457;50.832;4.346;2022-12-18T04:01:52;18.52;;;11.38;;
24337;SDS011;12457;50.832;4.346;2022-12-18T04:04:18;19.35;;;11.45;;
24337;SDS011;12457;50.832;4.346;2022-12-18T04:06:45;22.92;;;13.10;;
24337;SDS011;12457;50.832;4.346;2022-12-18T04:09:15;20.50;;;11.80;;
24337;SDS011;12457;50.832;4.346;2022-12-18T04:11:41;22.95;;;12.27;;
24337;SDS011;12457;50.832;4.346;2022-12-18T04:14:10;22.25;;;11.02;;
24337;SDS011;12457;50.832;4.346;2022-12-18T04:16:36;19.05;;;11.95;;
24337;SDS011;12457;50.832;4.346;2022-12-18T04:19:05;19.80;;;11.82;;
24337;SDS011;12457;50.832;4.346;2022-12-18T04:21:30;19.42;;;11.52;;
24337;SDS011;12457;50.832;4.346;2022-12-18T04:23:56;24.98;;;11.93;;
24337;SDS011;12457;50.832;4.346;2022-12-18T04:26:22;20.90;;;11.95;;
24337;SDS011;12457;50.832;4.346;2022-12-18T04:28:48;19.77;;;12.48;;
24337;SDS011;12457;50.832;4.346;2022-12-18T04:31:14;20.17;;;11.48;;
24337;SDS011;12457;50.832;4.346;2022-12-18T04:33:39;21.17;;;11.73;;
24337;SDS011;12457;50.832;4.346;2022-12-18T04:36:05;19.77;;;11.57;;
24337;SDS011;12457;50.832;4.346;2022-12-18T04:38:31;21.38;;;11.50;;
24337;SDS011;12457;50.832;4.346;2022-12-18T04:40:57;19.17;;;11.57;;
24337;SDS011;12457;50.832;4.346;2022-12-18T04:43:29;22.85;;;11.82;;
24337;SDS011;12457;50.832;4.346;2022-12-18T04:46:01;20.15;;;11.48;;
24337;SDS011;12457;50.832;4.346;2022-12-18T04:48:28;25.80;;;12.38;;
24337;SDS011;12457;50.832;4.346;2022-12-18T04:50:59;20.95;;;11.02;;
24337;SDS011;12457;50.832;4.346;2022-12-18T04:53:25;19.60;;;11.43;;
24337;SDS011;12457;50.832;4.346;2022-12-18T04:56:03;25.83;;;12.20;;
24337;SDS011;12457;50.832;4.346;2022-12-18T04:58:30;16.52;;;10.07;;
24337;SDS011;12457;50.832;4.346;2022-12-18T05:00:57;17.13;;;9.85;;
24337;SDS011;12457;50.832;4.346;2022-12-18T05:03:23;18.02;;;10.90;;
24337;SDS011;12457;50.832;4.346;2022-12-18T05:05:52;20.20;;;11.05;;
24337;SDS011;12457;50.832;4.346;2022-12-18T05:08:29;26.50;;;11.35;;
24337;SDS011;12457;50.832;4.346;2022-12-18T05:11:13;21.42;;;11.77;;
24337;SDS011;12457;50.832;4.346;2022-12-18T05:13:44;20.48;;;11.18;;
24337;SDS011;12457;50.832;4.346;2022-12-18T05:16:10;23.45;;;11.43;;
24337;SDS011;12457;50.832;4.346;2022-12-18T05:18:37;17.75;;;10.88;;
24337;SDS011;12457;50.832;4.346;2022-12-18T05:21:03;23.95;;;11.38;;
24337;SDS011;12457;50.832;4.346;2022-12-18T05:23:29;20.13;;;11.13;;
24337;SDS011;12457;50.832;4.346;2022-12-18T05:25:59;19.85;;;11.52;;
24337;SDS011;12457;50.832;4.346;2022-12-18T05:28:30;18.35;;;9.90;;
24337;SDS011;12457;50.832;4.346;2022-12-18T05:30:58;17.98;;;10.70;;
24337;SDS011;12457;50.832;4.346;2022-12-18T05:33:25;17.77;;;10.95;;
24337;SDS011;12457;50.832;4.346;2022-12-18T05:35:53;18.00;;;10.43;;
24337;SDS011;12457;50.832;4.346;2022-12-18T05:38:30;18.55;;;10.43;;
24337;SDS011;12457;50.832;4.346;2022-12-18T05:40:59;16.88;;;10.23;;
24337;SDS011;12457;50.832;4.346;2022-12-18T05:43:28;21.40;;;10.05;;
24337;SDS011;12457;50.832;4.346;2022-12-18T05:45:54;16.75;;;10.00;;
24337;SDS011;12457;50.832;4.346;2022-12-18T05:48:21;20.08;;;10.00;;
24337;SDS011;12457;50.832;4.346;2022-12-18T05:50:48;19.00;;;9.75;;
24337;SDS011;12457;50.832;4.346;2022-12-18T05:53:18;18.98;;;10.65;;
24337;SDS011;12457;50.832;4.346;2022-12-18T05:55:45;16.77;;;9.32;;
24337;SDS011;12457;50.832;4.346;2022-12-18T05:58:12;17.98;;;10.18;;
24337;SDS011;12457;50.832;4.346;2022-12-18T06:00:45;20.25;;;10.02;;
24337;SDS011;12457;50.832;4.346;2022-12-18T06:03:20;17.75;;;10.15;;
24337;SDS011;12457;50.832;4.346;2022-12-18T06:05:49;15.23;;;10.07;;
24337;SDS011;12457;50.832;4.346;2022-12-18T06:08:14;16.77;;;10.20;;
24337;SDS011;12457;50.832;4.346;2022-12-18T06:10:41;17.58;;;10.75;;
24337;SDS011;12457;50.832;4.346;2022-12-18T06:13:14;22.40;;;9.95;;
24337;SDS011;12457;50.832;4.346;2022-12-18T06:15:43;14.55;;;9.25;;
24337;SDS011;12457;50.832;4.346;2022-12-18T06:18:09;20.48;;;9.73;;
24337;SDS011;12457;50.832;4.346;2022-12-18T06:20:35;17.40;;;8.85;;
24337;SDS011;12457;50.832;4.346;2022-12-18T06:23:02;17.25;;;9.40;;
24337;SDS011;12457;50.832;4.346;2022-12-18T06:25:29;17.38;;;9.65;;
24337;SDS011;12457;50.832;4.346;2022-12-18T06:27:55;15.07;;;10.00;;
24337;SDS011;12457;50.832;4.346;2022-12-18T06:30:20;17.77;;;9.77;;
24337;SDS011;12457;50.832;4.346;2022-12-18T06:32:47;16.52;;;10.30;;
24337;SDS011;12457;50.832;4.346;2022-12-18T06:37:50;17.42;;;9.93;;
24337;SDS011;12457;50.832;4.346;2022-12-18T06:40:16;14.27;;;9.05;;
24337;SDS011;12457;50.832;4.346;2022-12-18T06:42:41;14.02;;;9.00;;
24337;SDS011;12457;50.832;4.346;2022-12-18T06:45:07;19.05;;;10.00;;
24337;SDS011;12457;50.832;4.346;2022-12-18T06:47:33;20.05;;;9.52;;
24337;SDS011;12457;50.832;4.346;2022-12-18T06:49:59;20.35;;;9.88;;
24337;SDS011;12457;50.832;4.346;2022-12-18T06:52:24;18.10;;;9.80;;
24337;SDS011;12457;50.832;4.346;2022-12-18T06:54:51;16.33;;;9.80;;
24337;SDS011;12457;50.832;4.346;2022-12-18T06:57:17;15.60;;;9.55;;
24337;SDS011;12457;50.832;4.346;2022-12-18T06:59:43;16.58;;;8.98;;
24337;SDS011;12457;50.832;4.346;2022-12-18T07:02:10;15.05;;;8.82;;
24337;SDS011;12457;50.832;4.346;2022-12-18T07:04:39;15.27;;;9.52;;
24337;SDS011;12457;50.832;4.346;2022-12-18T07:07:04;17.35;;;10.30;;
24337;SDS011;12457;50.832;4.346;2022-12-18T07:09:30;14.05;;;9.05;;
24337;SDS011;12457;50.832;4.346;2022-12-18T07:11:56;13.85;;;9.23;;
24337;SDS011;12457;50.832;4.346;2022-12-18T07:14:21;22.02;;;10.98;;
24337;SDS011;12457;50.832;4.346;2022-12-18T07:16:47;18.95;;;10.23;;
24337;SDS011;12457;50.832;4.346;2022-12-18T07:19:13;26.98;;;13.50;;
24337;SDS011;12457;50.832;4.346;2022-12-18T07:21:41;15.85;;;10.13;;
24337;SDS011;12457;50.832;4.346;2022-12-18T07:24:09;21.48;;;10.48;;
24337;SDS011;12457;50.832;4.346;2022-12-18T07:26:35;18.67;;;9.73;;
24337;SDS011;12457;50.832;4.346;2022-12-18T07:29:01;21.30;;;10.80;;
24337;SDS011;12457;50.832;4.346;2022-12-18T07:31:27;21.20;;;11.43;;
24337;SDS011;12457;50.832;4.346;2022-12-18T07:33:53;21.25;;;9.68;;
24337;SDS011;12457;50.832;4.346;2022-12-18T07:36:19;13.48;;;9.23;;
24337;SDS011;12457;50.832;4.346;2022-12-18T07:38:48;17.50;;;10.68;;
24337;SDS011;12457;50.832;4.346;2022-12-18T07:41:14;21.33;;;10.73;;
24337;SDS011;12457;50.832;4.346;2022-12-18T07:43:41;16.63;;;10.40;;
24337;SDS011;12457;50.832;4.346;2022-12-18T07:46:10;21.05;;;12.18;;
24337;SDS011;12457;50.832;4.346;2022-12-18T07:48:38;17.70;;;11.27;;
24337;SDS011;12457;50.832;4.346;2022-12-18T07:51:14;18.80;;;9.73;;
24337;SDS011;12457;50.832;4.346;2022-12-18T07:53:43;16.08;;;10.00;;
24337;SDS011;12457;50.832;4.346;2022-12-18T07:56:09;20.85;;;12.02;;
24337;SDS011;12457;50.832;4.346;2022-12-18T07:58:39;21.98;;;11.82;;
24337;SDS011;12457;50.832;4.346;2022-12-18T08:01:16;21.17;;;10.10;;
24337;SDS011;12457;50.832;4.346;2022-12-18T08:03:42;18.85;;;9.95;;
24337;SDS011;12457;50.832;4.346;2022-12-18T08:06:08;19.60;;;10.10;;
24337;SDS011;12457;50.832;4.346;2022-12-18T08:08:35;24.70;;;14.77;;
24337;SDS011;12457;50.832;4.346;2022-12-18T08:11:01;21.08;;;11.98;;
24337;SDS011;12457;50.832;4.346;2022-12-18T08:13:27;17.85;;;11.13;;
24337;SDS011;12457;50.832;4.346;2022-12-18T08:15:59;17.58;;;11.20;;
24337;SDS011;12457;50.832;4.346;2022-12-18T08:18:29;16.03;;;11.20;;
24337;SDS011;12457;50.832;4.346;2022-12-18T08:21:02;18.20;;;9.52;;
24337;SDS011;12457;50.832;4.346;2022-12-18T08:23:36;16.88;;;10.13;;
24337;SDS011;12457;50.832;4.346;2022-12-18T08:26:02;23.95;;;12.15;;
24337;SDS011;12457;50.832;4.346;2022-12-18T08:28:28;17.83;;;10.25;;
24337;SDS011;12457;50.832;4.346;2022-12-18T08:30:56;20.80;;;10.52;;
24337;SDS011;12457;50.832;4.346;2022-12-18T08:33:25;25.42;;;12.80;;
24337;SDS011;12457;50.832;4.346;2022-12-18T08:35:53;22.50;;;11.05;;
24337;SDS011;12457;50.832;4.346;2022-12-18T08:38:19;17.65;;;10.13;;
24337;SDS011;12457;50.832;4.346;2022-12-18T08:40:45;19.83;;;12.40;;
24337;SDS011;12457;50.832;4.346;2022-12-18T08:43:23;15.48;;;9.90;;
24337;SDS011;12457;50.832;4.346;2022-12-18T08:46:15;27.40;;;16.45;;
24337;SDS011;12457;50.832;4.346;2022-12-18T08:48:47;20.17;;;12.25;;
24337;SDS011;12457;50.832;4.346;2022-12-18T08:51:20;19.75;;;9.98;;
24337;SDS011;12457;50.832;4.346;2022-12-18T08:53:46;22.00;;;12.93;;
24337;SDS011;12457;50.832;4.346;2022-12-18T08:56:13;18.40;;;10.50;;
24337;SDS011;12457;50.832;4.346;2022-12-18T08:58:45;28.15;;;14.50;;
24337;SDS011;12457;50.832;4.346;2022-12-18T09:01:11;18.65;;;11.70;;
24337;SDS011;12457;50.832;4.346;2022-12-18T09:03:38;28.15;;;13.88;;
24337;SDS011;12457;50.832;4.346;2022-12-18T09:06:05;25.75;;;13.80;;
24337;SDS011;12457;50.832;4.346;2022-12-18T09:08:31;22.23;;;11.98;;
24337;SDS011;12457;50.832;4.346;2022-12-18T09:11:01;22.95;;;12.98;;
24337;SDS011;12457;50.832;4.346;2022-12-18T09:13:40;18.15;;;11.52;;
24337;SDS011;12457;50.832;4.346;2022-12-18T09:16:06;25.02;;;12.95;;
24337;SDS011;12457;50.832;4.346;2022-12-18T09:18:32;20.92;;;11.90;;
24337;SDS011;12457;50.832;4.346;2022-12-18T09:20:58;20.08;;;10.80;;
24337;SDS011;12457;50.832;4.346;2022-12-18T09:23:35;21.55;;;11.13;;
24337;SDS011;12457;50.832;4.346;2022-12-18T09:26:01;30.45;;;12.65;;
24337;SDS011;12457;50.832;4.346;2022-12-18T09:28:27;22.27;;;12.18;;
24337;SDS011;12457;50.832;4.346;2022-12-18T09:30:56;22.42;;;12.25;;
24337;SDS011;12457;50.832;4.346;2022-12-18T09:33:22;18.77;;;11.48;;
24337;SDS011;12457;50.832;4.346;2022-12-18T09:35:48;25.20;;;13.25;;
24337;SDS011;12457;50.832;4.346;2022-12-18T09:38:18;19.55;;;11.38;;
24337;SDS011;12457;50.832;4.346;2022-12-18T09:40:49;28.23;;;12.43;;
24337;SDS011;12457;50.832;4.346;2022-12-18T09:43:22;24.15;;;13.40;;
24337;SDS011;12457;50.832;4.346;2022-12-18T09:46:00;24.95;;;13.13;;
24337;SDS011;12457;50.832;4.346;2022-12-18T09:48:38;21.77;;;11.50;;
24337;SDS011;12457;50.832;4.346;2022-12-18T09:51:18;26.52;;;13.02;;
24337;SDS011;12457;50.832;4.346;2022-12-18T09:53:55;28.58;;;13.82;;
24337;SDS011;12457;50.832;4.346;2022-12-18T09:56:43;22.52;;;12.60;;
24337;SDS011;12457;50.832;4.346;2022-12-18T09:59:23;26.55;;;14.35;;
24337;SDS011;12457;50.832;4.346;2022-12-18T10:01:59;25.58;;;14.27;;
24337;SDS011;12457;50.832;4.346;2022-12-18T10:04:55;26.95;;;13.20;;
24337;SDS011;12457;50.832;4.346;2022-12-18T10:08:00;20.85;;;12.23;;
24337;SDS011;12457;50.832;4.346;2022-12-18T10:18:55;45.80;;;22.02;;
24337;SDS011;12457;50.832;4.346;2022-12-18T10:21:41;49.58;;;28.75;;
24337;SDS011;12457;50.832;4.346;2022-12-18T10:27:15;29.98;;;17.13;;
24337;SDS011;12457;50.832;4.346;2022-12-18T10:29:43;30.65;;;15.75;;
24337;SDS011;12457;50.832;4.346;2022-12-18T10:32:29;37.55;;;20.13;;
24337;SDS011;12457;50.832;4.346;2022-12-18T10:35:03;26.67;;;12.82;;
24337;SDS011;12457;50.832;4.346;2022-12-18T10:37:29;28.95;;;14.55;;
24337;SDS011;12457;50.832;4.346;2022-12-18T10:40:08;28.38;;;17.10;;
24337;SDS011;12457;50.832;4.346;2022-12-18T10:42:34;36.08;;;19.90;;
24337;SDS011;12457;50.832;4.346;2022-12-18T10:45:01;27.33;;;16.60;;
24337;SDS011;12457;50.832;4.346;2022-12-18T10:47:41;34.75;;;17.13;;
24337;SDS011;12457;50.832;4.346;2022-12-18T10:50:47;36.42;;;19.05;;
24337;SDS011;12457;50.832;4.346;2022-12-18T10:53:05;73.90;;;41.85;;
24337;SDS011;12457;50.832;4.346;2022-12-18T10:55:32;41.20;;;23.05;;
24337;SDS011;12457;50.832;4.346;2022-12-18T10:58:20;38.85;;;18.48;;
24337;SDS011;12457;50.832;4.346;2022-12-18T11:01:11;47.70;;;20.20;;
24337;SDS011;12457;50.832;4.346;2022-12-18T11:03:42;37.58;;;22.45;;
24337;SDS011;12457;50.832;4.346;2022-12-18T11:06:13;44.45;;;22.00;;
24337;SDS011;12457;50.832;4.346;2022-12-18T11:08:41;33.78;;;16.40;;
24337;SDS011;12457;50.832;4.346;2022-12-18T11:11:19;27.65;;;14.43;;
24337;SDS011;12457;50.832;4.346;2022-12-18T11:13:51;44.70;;;23.75;;
24337;SDS011;12457;50.832;4.346;2022-12-18T11:16:42;35.67;;;19.70;;
24337;SDS011;12457;50.832;4.346;2022-12-18T11:21:49;34.17;;;19.20;;
24337;SDS011;12457;50.832;4.346;2022-12-18T11:24:27;39.60;;;17.92;;
24337;SDS011;12457;50.832;4.346;2022-12-18T11:27:00;34.85;;;20.20;;
24337;SDS011;12457;50.832;4.346;2022-12-18T11:29:41;36.65;;;17.38;;
24337;SDS011;12457;50.832;4.346;2022-12-18T11:32:26;35.08;;;16.38;;
24337;SDS011;12457;50.832;4.346;2022-12-18T11:34:58;26.05;;;14.90;;
24337;SDS011;12457;50.832;4.346;2022-12-18T11:37:35;28.58;;;13.63;;
24337;SDS011;12457;50.832;4.346;2022-12-18T11:40:03;29.63;;;16.85;;
24337;SDS011;12457;50.832;4.346;2022-12-18T11:45:35;32.90;;;19.02;;
24337;SDS011;12457;50.832;4.346;2022-12-18T11:51:00;33.80;;;16.20;;
24337;SDS011;12457;50.832;4.346;2022-12-18T11:53:29;27.67;;;16.65;;
24337;SDS011;12457;50.832;4.346;2022-12-18T11:58:58;30.13;;;15.55;;
24337;SDS011;12457;50.832;4.346;2022-12-18T12:01:50;47.75;;;25.92;;
24337;SDS011;12457;50.832;4.346;2022-12-18T12:12:33;32.45;;;17.42;;
24337;SDS011;12457;50.832;4.346;2022-12-18T12:15:32;39.20;;;18.63;;
24337;SDS011;12457;50.832;4.346;2022-12-18T12:40:11;37.47;;;18.23;;
24337;SDS011;12457;50.832;4.346;2022-12-18T12:43:00;36.15;;;18.15;;
24337;SDS011;12457;50.832;4.346;2022-12-18T12:48:18;30.10;;;15.55;;
24337;SDS011;12457;50.832;4.346;2022-12-18T12:50:46;37.20;;;20.17;;
24337;SDS011;12457;50.832;4.346;2022-12-18T12:53:16;31.08;;;16.77;;
24337;SDS011;12457;50.832;4.346;2022-12-18T12:55:50;42.83;;;17.92;;
24337;SDS011;12457;50.832;4.346;2022-12-18T12:58:23;27.92;;;16.65;;
24337;SDS011;12457;50.832;4.346;2022-12-18T13:01:16;35.35;;;19.85;;
24337;SDS011;12457;50.832;4.346;2022-12-18T13:09:08;36.58;;;17.13;;
24337;SDS011;12457;50.832;4.346;2022-12-18T13:11:40;42.38;;;23.73;;
24337;SDS011;12457;50.832;4.346;2022-12-18T13:14:36;38.15;;;20.33;;
24337;SDS011;12457;50.832;4.346;2022-12-18T13:20:08;36.63;;;19.75;;
24337;SDS011;12457;50.832;4.346;2022-12-18T13:22:37;39.15;;;21.02;;
24337;SDS011;12457;50.832;4.346;2022-12-18T13:30:42;51.53;;;21.65;;
24337;SDS011;12457;50.832;4.346;2022-12-18T13:36:01;34.75;;;18.42;;
24337;SDS011;12457;50.832;4.346;2022-12-18T13:38:41;40.78;;;20.55;;
24337;SDS011;12457;50.832;4.346;2022-12-18T13:43:49;50.17;;;27.30;;
24337;SDS011;12457;50.832;4.346;2022-12-18T13:46:29;42.83;;;22.75;;
24337;SDS011;12457;50.832;4.346;2022-12-18T13:51:42;47.13;;;26.30;;
24337;SDS011;12457;50.832;4.346;2022-12-18T13:57:01;44.38;;;23.17;;
24337;SDS011;12457;50.832;4.346;2022-12-18T13:59:34;44.45;;;23.67;;
24337;SDS011;12457;50.832;4.346;2022-12-18T14:02:13;56.78;;;28.15;;
24337;SDS011;12457;50.832;4.346;2022-12-18T14:04:40;58.00;;;27.77;;
24337;SDS011;12457;50.832;4.346;2022-12-18T14:09:37;35.72;;;20.90;;
24337;SDS011;12457;50.832;4.346;2022-12-18T14:12:11;41.20;;;22.27;;
24337;SDS011;12457;50.832;4.346;2022-12-18T14:15:05;40.70;;;22.10;;
24337;SDS011;12457;50.832;4.346;2022-12-18T14:17:41;39.95;;;21.88;;
24337;SDS011;12457;50.832;4.346;2022-12-18T14:20:12;48.03;;;23.27;;
24337;SDS011;12457;50.832;4.346;2022-12-18T14:22:42;47.38;;;24.90;;
24337;SDS011;12457;50.832;4.346;2022-12-18T14:27:48;51.70;;;25.42;;
24337;SDS011;12457;50.832;4.346;2022-12-18T14:30:53;56.17;;;27.52;;
24337;SDS011;12457;50.832;4.346;2022-12-18T14:33:12;53.28;;;26.52;;
24337;SDS011;12457;50.832;4.346;2022-12-18T14:35:51;49.50;;;26.05;;
24337;SDS011;12457;50.832;4.346;2022-12-18T14:38:20;47.42;;;25.70;;
24337;SDS011;12457;50.832;4.346;2022-12-18T14:40:52;47.33;;;24.70;;
24337;SDS011;12457;50.832;4.346;2022-12-18T14:43:26;46.20;;;24.30;;
24337;SDS011;12457;50.832;4.346;2022-12-18T14:45:53;51.92;;;23.17;;
24337;SDS011;12457;50.832;4.346;2022-12-18T14:50:54;48.67;;;22.77;;
24337;SDS011;12457;50.832;4.346;2022-12-18T14:53:32;37.78;;;21.80;;
24337;SDS011;12457;50.832;4.346;2022-12-18T14:56:01;48.65;;;22.77;;
24337;SDS011;12457;50.832;4.346;2022-12-18T14:58:27;43.13;;;23.63;;
24337;SDS011;12457;50.832;4.346;2022-12-18T15:00:53;64.90;;;30.83;;
24337;SDS011;12457;50.832;4.346;2022-12-18T15:03:21;51.03;;;26.92;;
24337;SDS011;12457;50.832;4.346;2022-12-18T15:05:47;54.38;;;24.23;;
24337;SDS011;12457;50.832;4.346;2022-12-18T15:11:27;43.08;;;23.55;;
24337;SDS011;12457;50.832;4.346;2022-12-18T15:14:00;53.08;;;22.40;;
24337;SDS011;12457;50.832;4.346;2022-12-18T15:16:49;45.50;;;23.95;;
24337;SDS011;12457;50.832;4.346;2022-12-18T15:19:17;47.50;;;22.83;;
24337;SDS011;12457;50.832;4.346;2022-12-18T15:21:43;47.30;;;22.80;;
24337;SDS011;12457;50.832;4.346;2022-12-18T15:24:16;37.22;;;20.83;;
24337;SDS011;12457;50.832;4.346;2022-12-18T15:26:45;45.75;;;23.15;;
24337;SDS011;12457;50.832;4.346;2022-12-18T15:29:20;44.03;;;23.92;;
24337;SDS011;12457;50.832;4.346;2022-12-18T15:32:05;45.47;;;22.45;;
24337;SDS011;12457;50.832;4.346;2022-12-18T15:34:43;40.58;;;22.63;;
24337;SDS011;12457;50.832;4.346;2022-12-18T15:37:09;43.72;;;23.55;;
24337;SDS011;12457;50.832;4.346;2022-12-18T15:39:37;47.20;;;23.33;;
24337;SDS011;12457;50.832;4.346;2022-12-18T15:42:02;47.20;;;24.17;;
24337;SDS011;12457;50.832;4.346;2022-12-18T15:44:47;42.70;;;23.80;;
24337;SDS011;12457;50.832;4.346;2022-12-18T15:47:16;50.88;;;24.10;;
24337;SDS011;12457;50.832;4.346;2022-12-18T15:49:43;48.45;;;22.77;;
24337;SDS011;12457;50.832;4.346;2022-12-18T15:52:08;44.20;;;23.63;;
24337;SDS011;12457;50.832;4.346;2022-12-18T15:54:38;46.20;;;23.58;;
24337;SDS011;12457;50.832;4.346;2022-12-18T15:57:24;49.63;;;25.83;;
24337;SDS011;12457;50.832;4.346;2022-12-18T15:59:54;52.72;;;26.90;;
24337;SDS011;12457;50.832;4.346;2022-12-18T16:02:22;46.80;;;23.92;;
24337;SDS011;12457;50.832;4.346;2022-12-18T16:04:50;54.10;;;28.38;;
24337;SDS011;12457;50.832;4.346;2022-12-18T16:07:17;62.30;;;25.50;;
24337;SDS011;12457;50.832;4.346;2022-12-18T16:09:43;56.88;;;25.17;;
24337;SDS011;12457;50.832;4.346;2022-12-18T16:12:14;42.05;;;22.90;;
24337;SDS011;12457;50.832;4.346;2022-12-18T16:14:43;48.40;;;24.67;;
24337;SDS011;12457;50.832;4.346;2022-12-18T16:17:09;47.72;;;24.23;;
24337;SDS011;12457;50.832;4.346;2022-12-18T16:19:38;46.28;;;23.77;;
24337;SDS011;12457;50.832;4.346;2022-12-18T16:22:04;42.72;;;22.15;;
24337;SDS011;12457;50.832;4.346;2022-12-18T16:24:31;51.75;;;26.60;;
24337;SDS011;12457;50.832;4.346;2022-12-18T16:26:59;48.85;;;25.45;;
24337;SDS011;12457;50.832;4.346;2022-12-18T16:29:26;46.65;;;23.20;;
24337;SDS011;12457;50.832;4.346;2022-12-18T16:31:53;60.08;;;27.75;;
24337;SDS011;12457;50.832;4.346;2022-12-18T16:34:27;47.85;;;22.95;;
24337;SDS011;12457;50.832;4.346;2022-12-18T16:36:58;44.80;;;23.17;;
24337;SDS011;12457;50.832;4.346;2022-12-18T16:39:29;43.45;;;22.17;;
24337;SDS011;12457;50.832;4.346;2022-12-18T16:41:56;44.92;;;24.20;;
24337;SDS011;12457;50.832;4.346;2022-12-18T16:44:23;46.72;;;22.45;;